sensor_id;sensor_type;location;lat;lon;timestamp;P1;durP1;ratioP1;P2;durP2;ratioP2
16119;SDS011;12670;53.502;10.252;2023-08-06T00:00:29;3.77;;;2.30;;
16119;SDS011;12670;53.502;10.252;2023-08-06T00:03:32;3.10;;;2.10;;
16119;SDS011;12670;53.502;10.252;2023-08-06T00:06:35;3.60;;;2.00;;
16119;SDS011;12670;53.502;10.252;2023-08-06T00:09:39;3.67;;;2.33;;
16119;SDS011;12670;53.502;10.252;2023-08-06T00:12:41;5.77;;;2.50;;
16119;SDS011;12670;53.502;10.252;2023-08-06T00:15:44;3.30;;;2.47;;
16119;SDS011;12670;53.502;10.252;2023-08-06T00:18:47;3.30;;;2.40;;
16119;SDS011;12670;53.502;10.252;2023-08-06T00:21:50;3.97;;;2.30;;
16119;SDS011;12670;53.502;10.252;2023-08-06T00:24:54;5.43;;;2.70;;
16119;SDS011;12670;53.502;10.252;2023-08-06T00:27:58;3.90;;;2.50;;
16119;SDS011;12670;53.502;10.252;2023-08-06T00:31:01;3.97;;;2.60;;
16119;SDS011;12670;53.502;10.252;2023-08-06T00:34:04;6.50;;;3.30;;
16119;SDS011;12670;53.502;10.252;2023-08-06T00:37:07;4.00;;;2.80;;
16119;SDS011;12670;53.502;10.252;2023-08-06T00:40:11;7.63;;;3.13;;
16119;SDS011;12670;53.502;10.252;2023-08-06T00:43:13;3.73;;;2.63;;
16119;SDS011;12670;53.502;10.252;2023-08-06T00:46:16;9.23;;;3.37;;
16119;SDS011;12670;53.502;10.252;2023-08-06T00:49:19;5.37;;;3.40;;
16119;SDS011;12670;53.502;10.252;2023-08-06T00:52:22;6.27;;;3.57;;
16119;SDS011;12670;53.502;10.252;2023-08-06T00:55:26;4.40;;;2.90;;
16119;SDS011;12670;53.502;10.252;2023-08-06T00:58:29;3.60;;;3.20;;
16119;SDS011;12670;53.502;10.252;2023-08-06T01:01:32;5.10;;;3.43;;
16119;SDS011;12670;53.502;10.252;2023-08-06T01:04:35;7.30;;;3.50;;
16119;SDS011;12670;53.502;10.252;2023-08-06T01:07:41;6.40;;;3.27;;
16119;SDS011;12670;53.502;10.252;2023-08-06T01:10:55;4.67;;;3.60;;
16119;SDS011;12670;53.502;10.252;2023-08-06T01:14:08;10.13;;;3.53;;
16119;SDS011;12670;53.502;10.252;2023-08-06T01:17:18;7.27;;;3.70;;
16119;SDS011;12670;53.502;10.252;2023-08-06T01:20:22;4.93;;;3.40;;
16119;SDS011;12670;53.502;10.252;2023-08-06T01:23:30;7.37;;;4.17;;
16119;SDS011;12670;53.502;10.252;2023-08-06T01:26:35;5.27;;;3.80;;
16119;SDS011;12670;53.502;10.252;2023-08-06T01:29:44;5.43;;;3.70;;
16119;SDS011;12670;53.502;10.252;2023-08-06T01:32:50;5.97;;;3.60;;
16119;SDS011;12670;53.502;10.252;2023-08-06T01:36:00;5.30;;;3.70;;
16119;SDS011;12670;53.502;10.252;2023-08-06T01:39:04;5.47;;;4.00;;
16119;SDS011;12670;53.502;10.252;2023-08-06T01:42:07;5.87;;;3.70;;
16119;SDS011;12670;53.502;10.252;2023-08-06T01:45:10;5.87;;;4.27;;
16119;SDS011;12670;53.502;10.252;2023-08-06T01:48:13;8.13;;;3.93;;
16119;SDS011;12670;53.502;10.252;2023-08-06T01:51:17;5.57;;;3.87;;
16119;SDS011;12670;53.502;10.252;2023-08-06T01:54:20;6.87;;;4.50;;
16119;SDS011;12670;53.502;10.252;2023-08-06T01:57:23;5.50;;;3.93;;
16119;SDS011;12670;53.502;10.252;2023-08-06T02:00:26;7.63;;;4.23;;
16119;SDS011;12670;53.502;10.252;2023-08-06T02:03:30;10.10;;;4.10;;
16119;SDS011;12670;53.502;10.252;2023-08-06T02:06:34;6.00;;;4.03;;
16119;SDS011;12670;53.502;10.252;2023-08-06T02:09:36;6.40;;;4.20;;
16119;SDS011;12670;53.502;10.252;2023-08-06T02:12:39;8.87;;;3.93;;
16119;SDS011;12670;53.502;10.252;2023-08-06T02:15:42;8.00;;;4.20;;
16119;SDS011;12670;53.502;10.252;2023-08-06T02:18:45;6.57;;;4.43;;
16119;SDS011;12670;53.502;10.252;2023-08-06T02:21:49;9.60;;;4.23;;
16119;SDS011;12670;53.502;10.252;2023-08-06T02:24:52;8.53;;;3.90;;
16119;SDS011;12670;53.502;10.252;2023-08-06T02:27:55;7.03;;;4.40;;
16119;SDS011;12670;53.502;10.252;2023-08-06T02:30:58;6.00;;;3.90;;
16119;SDS011;12670;53.502;10.252;2023-08-06T02:34:01;5.83;;;3.93;;
16119;SDS011;12670;53.502;10.252;2023-08-06T02:37:05;6.93;;;4.27;;
16119;SDS011;12670;53.502;10.252;2023-08-06T02:40:08;11.90;;;4.60;;
16119;SDS011;12670;53.502;10.252;2023-08-06T02:43:11;7.00;;;4.23;;
16119;SDS011;12670;53.502;10.252;2023-08-06T02:46:13;8.33;;;4.17;;
16119;SDS011;12670;53.502;10.252;2023-08-06T02:49:16;6.07;;;3.90;;
16119;SDS011;12670;53.502;10.252;2023-08-06T02:52:20;9.80;;;4.30;;
16119;SDS011;12670;53.502;10.252;2023-08-06T02:55:23;6.80;;;3.70;;
16119;SDS011;12670;53.502;10.252;2023-08-06T02:58:25;7.97;;;3.57;;
16119;SDS011;12670;53.502;10.252;2023-08-06T03:01:28;14.43;;;4.10;;
16119;SDS011;12670;53.502;10.252;2023-08-06T03:04:31;6.50;;;3.90;;
16119;SDS011;12670;53.502;10.252;2023-08-06T03:07:35;7.27;;;3.90;;
16119;SDS011;12670;53.502;10.252;2023-08-06T03:10:38;9.97;;;3.97;;
16119;SDS011;12670;53.502;10.252;2023-08-06T03:13:43;9.37;;;4.07;;
16119;SDS011;12670;53.502;10.252;2023-08-06T03:16:46;7.50;;;4.10;;
16119;SDS011;12670;53.502;10.252;2023-08-06T03:19:49;8.50;;;4.17;;
16119;SDS011;12670;53.502;10.252;2023-08-06T03:22:53;7.70;;;3.73;;
16119;SDS011;12670;53.502;10.252;2023-08-06T03:25:55;7.20;;;3.97;;
16119;SDS011;12670;53.502;10.252;2023-08-06T03:28:58;5.53;;;4.07;;
16119;SDS011;12670;53.502;10.252;2023-08-06T03:32:01;7.10;;;3.80;;
16119;SDS011;12670;53.502;10.252;2023-08-06T03:35:03;5.63;;;3.70;;
16119;SDS011;12670;53.502;10.252;2023-08-06T03:38:08;6.30;;;4.00;;
16119;SDS011;12670;53.502;10.252;2023-08-06T03:41:11;6.93;;;4.00;;
16119;SDS011;12670;53.502;10.252;2023-08-06T03:44:13;6.30;;;4.07;;
16119;SDS011;12670;53.502;10.252;2023-08-06T03:47:16;6.37;;;3.40;;
16119;SDS011;12670;53.502;10.252;2023-08-06T03:50:19;7.40;;;3.93;;
16119;SDS011;12670;53.502;10.252;2023-08-06T03:53:23;14.90;;;3.77;;
16119;SDS011;12670;53.502;10.252;2023-08-06T03:56:25;9.57;;;3.93;;
16119;SDS011;12670;53.502;10.252;2023-08-06T03:59:28;14.50;;;4.17;;
16119;SDS011;12670;53.502;10.252;2023-08-06T04:02:31;6.70;;;3.93;;
16119;SDS011;12670;53.502;10.252;2023-08-06T04:05:34;9.73;;;4.07;;
16119;SDS011;12670;53.502;10.252;2023-08-06T04:08:38;6.50;;;3.80;;
16119;SDS011;12670;53.502;10.252;2023-08-06T04:11:40;8.73;;;3.90;;
16119;SDS011;12670;53.502;10.252;2023-08-06T04:14:43;7.07;;;4.00;;
16119;SDS011;12670;53.502;10.252;2023-08-06T04:17:46;12.17;;;4.30;;
16119;SDS011;12670;53.502;10.252;2023-08-06T04:20:49;7.63;;;4.20;;
16119;SDS011;12670;53.502;10.252;2023-08-06T04:23:55;9.57;;;3.97;;
16119;SDS011;12670;53.502;10.252;2023-08-06T04:26:58;8.20;;;4.30;;
16119;SDS011;12670;53.502;10.252;2023-08-06T04:30:00;8.87;;;4.13;;
16119;SDS011;12670;53.502;10.252;2023-08-06T04:33:03;7.57;;;4.20;;
16119;SDS011;12670;53.502;10.252;2023-08-06T04:36:06;10.10;;;4.10;;
16119;SDS011;12670;53.502;10.252;2023-08-06T04:39:10;7.37;;;4.43;;
16119;SDS011;12670;53.502;10.252;2023-08-06T04:42:13;7.03;;;4.60;;
16119;SDS011;12670;53.502;10.252;2023-08-06T04:45:15;6.53;;;4.20;;
16119;SDS011;12670;53.502;10.252;2023-08-06T04:48:18;10.30;;;4.60;;
16119;SDS011;12670;53.502;10.252;2023-08-06T04:51:21;8.07;;;4.10;;
16119;SDS011;12670;53.502;10.252;2023-08-06T04:54:25;10.63;;;4.73;;
16119;SDS011;12670;53.502;10.252;2023-08-06T04:57:28;10.50;;;4.87;;
16119;SDS011;12670;53.502;10.252;2023-08-06T05:00:30;6.97;;;4.63;;
16119;SDS011;12670;53.502;10.252;2023-08-06T05:03:33;8.03;;;4.67;;
16119;SDS011;12670;53.502;10.252;2023-08-06T05:06:36;8.03;;;5.17;;
16119;SDS011;12670;53.502;10.252;2023-08-06T05:09:42;7.30;;;4.67;;
16119;SDS011;12670;53.502;10.252;2023-08-06T05:12:45;12.30;;;5.10;;
16119;SDS011;12670;53.502;10.252;2023-08-06T05:15:48;11.37;;;5.00;;
16119;SDS011;12670;53.502;10.252;2023-08-06T05:18:51;12.87;;;4.90;;
16119;SDS011;12670;53.502;10.252;2023-08-06T05:21:53;8.73;;;4.67;;
16119;SDS011;12670;53.502;10.252;2023-08-06T05:24:58;8.37;;;4.80;;
16119;SDS011;12670;53.502;10.252;2023-08-06T05:28:00;12.07;;;4.90;;
16119;SDS011;12670;53.502;10.252;2023-08-06T05:31:03;14.20;;;5.13;;
16119;SDS011;12670;53.502;10.252;2023-08-06T05:34:07;9.23;;;5.53;;
16119;SDS011;12670;53.502;10.252;2023-08-06T05:37:09;14.40;;;5.00;;
16119;SDS011;12670;53.502;10.252;2023-08-06T05:40:14;9.07;;;4.97;;
16119;SDS011;12670;53.502;10.252;2023-08-06T05:43:16;9.37;;;4.93;;
16119;SDS011;12670;53.502;10.252;2023-08-06T05:46:19;8.77;;;4.80;;
16119;SDS011;12670;53.502;10.252;2023-08-06T05:49:22;9.27;;;5.67;;
16119;SDS011;12670;53.502;10.252;2023-08-06T05:52:24;9.33;;;5.10;;
16119;SDS011;12670;53.502;10.252;2023-08-06T05:55:28;14.23;;;5.40;;
16119;SDS011;12670;53.502;10.252;2023-08-06T05:58:32;10.40;;;5.50;;
16119;SDS011;12670;53.502;10.252;2023-08-06T06:01:35;10.83;;;4.90;;
16119;SDS011;12670;53.502;10.252;2023-08-06T06:04:38;11.63;;;5.53;;
16119;SDS011;12670;53.502;10.252;2023-08-06T06:07:40;13.37;;;6.77;;
16119;SDS011;12670;53.502;10.252;2023-08-06T06:10:44;15.37;;;6.83;;
16119;SDS011;12670;53.502;10.252;2023-08-06T06:13:47;12.80;;;6.10;;
16119;SDS011;12670;53.502;10.252;2023-08-06T06:16:51;10.50;;;5.60;;
16119;SDS011;12670;53.502;10.252;2023-08-06T06:19:54;11.80;;;6.63;;
16119;SDS011;12670;53.502;10.252;2023-08-06T06:22:57;11.67;;;6.47;;
16119;SDS011;12670;53.502;10.252;2023-08-06T06:26:01;13.03;;;7.47;;
16119;SDS011;12670;53.502;10.252;2023-08-06T06:29:03;11.57;;;6.60;;
16119;SDS011;12670;53.502;10.252;2023-08-06T06:32:08;12.10;;;6.37;;
16119;SDS011;12670;53.502;10.252;2023-08-06T06:35:12;11.93;;;5.67;;
16119;SDS011;12670;53.502;10.252;2023-08-06T06:38:14;11.97;;;6.73;;
16119;SDS011;12670;53.502;10.252;2023-08-06T06:41:18;9.03;;;5.70;;
16119;SDS011;12670;53.502;10.252;2023-08-06T06:44:21;10.17;;;6.13;;
16119;SDS011;12670;53.502;10.252;2023-08-06T06:47:24;12.67;;;5.80;;
16119;SDS011;12670;53.502;10.252;2023-08-06T06:50:26;18.03;;;8.53;;
16119;SDS011;12670;53.502;10.252;2023-08-06T06:53:29;10.27;;;5.60;;
16119;SDS011;12670;53.502;10.252;2023-08-06T06:56:33;13.30;;;6.50;;
16119;SDS011;12670;53.502;10.252;2023-08-06T06:59:36;8.80;;;5.20;;
16119;SDS011;12670;53.502;10.252;2023-08-06T07:02:39;15.20;;;5.23;;
16119;SDS011;12670;53.502;10.252;2023-08-06T07:05:42;10.53;;;5.70;;
16119;SDS011;12670;53.502;10.252;2023-08-06T07:08:46;12.03;;;6.10;;
16119;SDS011;12670;53.502;10.252;2023-08-06T07:11:50;11.30;;;6.37;;
16119;SDS011;12670;53.502;10.252;2023-08-06T07:14:54;12.13;;;6.00;;
16119;SDS011;12670;53.502;10.252;2023-08-06T07:17:57;10.33;;;5.97;;
16119;SDS011;12670;53.502;10.252;2023-08-06T07:21:00;9.37;;;5.33;;
16119;SDS011;12670;53.502;10.252;2023-08-06T07:24:03;12.13;;;5.67;;
16119;SDS011;12670;53.502;10.252;2023-08-06T07:27:07;13.43;;;5.50;;
16119;SDS011;12670;53.502;10.252;2023-08-06T07:30:10;9.53;;;5.67;;
16119;SDS011;12670;53.502;10.252;2023-08-06T07:33:13;12.07;;;5.63;;
16119;SDS011;12670;53.502;10.252;2023-08-06T07:36:15;13.13;;;6.17;;
16119;SDS011;12670;53.502;10.252;2023-08-06T07:39:18;10.37;;;5.43;;
16119;SDS011;12670;53.502;10.252;2023-08-06T07:42:22;9.90;;;6.10;;
16119;SDS011;12670;53.502;10.252;2023-08-06T07:45:25;13.20;;;5.67;;
16119;SDS011;12670;53.502;10.252;2023-08-06T07:48:29;14.47;;;6.50;;
16119;SDS011;12670;53.502;10.252;2023-08-06T07:51:32;11.83;;;6.20;;
16119;SDS011;12670;53.502;10.252;2023-08-06T07:54:34;12.27;;;6.00;;
16119;SDS011;12670;53.502;10.252;2023-08-06T07:57:38;11.00;;;5.90;;
16119;SDS011;12670;53.502;10.252;2023-08-06T08:00:41;23.07;;;9.93;;
16119;SDS011;12670;53.502;10.252;2023-08-06T08:03:46;19.50;;;8.63;;
16119;SDS011;12670;53.502;10.252;2023-08-06T08:06:49;13.03;;;5.93;;
16119;SDS011;12670;53.502;10.252;2023-08-06T08:09:52;13.53;;;6.73;;
16119;SDS011;12670;53.502;10.252;2023-08-06T08:12:56;10.43;;;6.63;;
16119;SDS011;12670;53.502;10.252;2023-08-06T08:15:59;10.93;;;6.23;;
16119;SDS011;12670;53.502;10.252;2023-08-06T08:19:03;18.23;;;8.67;;
16119;SDS011;12670;53.502;10.252;2023-08-06T08:22:06;16.20;;;9.77;;
16119;SDS011;12670;53.502;10.252;2023-08-06T08:25:09;11.33;;;6.60;;
16119;SDS011;12670;53.502;10.252;2023-08-06T08:28:13;12.97;;;6.97;;
16119;SDS011;12670;53.502;10.252;2023-08-06T08:31:15;13.67;;;6.00;;
16119;SDS011;12670;53.502;10.252;2023-08-06T08:34:18;12.43;;;7.27;;
16119;SDS011;12670;53.502;10.252;2023-08-06T08:37:21;18.03;;;6.97;;
16119;SDS011;12670;53.502;10.252;2023-08-06T08:40:23;14.03;;;7.13;;
16119;SDS011;12670;53.502;10.252;2023-08-06T08:43:35;11.80;;;6.80;;
16119;SDS011;12670;53.502;10.252;2023-08-06T08:46:40;11.57;;;6.77;;
16119;SDS011;12670;53.502;10.252;2023-08-06T08:49:43;14.77;;;6.53;;
16119;SDS011;12670;53.502;10.252;2023-08-06T08:52:48;15.17;;;7.20;;
16119;SDS011;12670;53.502;10.252;2023-08-06T08:55:53;17.37;;;8.53;;
16119;SDS011;12670;53.502;10.252;2023-08-06T08:58:58;22.77;;;10.43;;
16119;SDS011;12670;53.502;10.252;2023-08-06T09:02:01;12.70;;;7.60;;
16119;SDS011;12670;53.502;10.252;2023-08-06T09:05:04;13.47;;;7.90;;
16119;SDS011;12670;53.502;10.252;2023-08-06T09:08:07;53.67;;;29.80;;
16119;SDS011;12670;53.502;10.252;2023-08-06T09:11:13;18.70;;;8.93;;
16119;SDS011;12670;53.502;10.252;2023-08-06T09:14:18;13.27;;;6.87;;
16119;SDS011;12670;53.502;10.252;2023-08-06T09:17:21;15.57;;;7.30;;
16119;SDS011;12670;53.502;10.252;2023-08-06T09:20:24;14.03;;;7.57;;
16119;SDS011;12670;53.502;10.252;2023-08-06T09:23:27;10.17;;;6.70;;
16119;SDS011;12670;53.502;10.252;2023-08-06T09:26:32;11.50;;;6.30;;
16119;SDS011;12670;53.502;10.252;2023-08-06T09:29:37;14.83;;;7.40;;
16119;SDS011;12670;53.502;10.252;2023-08-06T09:32:45;14.23;;;7.07;;
16119;SDS011;12670;53.502;10.252;2023-08-06T09:35:49;12.93;;;7.47;;
16119;SDS011;12670;53.502;10.252;2023-08-06T09:38:52;13.57;;;7.90;;
16119;SDS011;12670;53.502;10.252;2023-08-06T09:41:55;13.50;;;7.80;;
16119;SDS011;12670;53.502;10.252;2023-08-06T09:45:06;17.40;;;9.23;;
16119;SDS011;12670;53.502;10.252;2023-08-06T09:48:09;24.47;;;13.47;;
16119;SDS011;12670;53.502;10.252;2023-08-06T09:51:13;14.00;;;9.67;;
16119;SDS011;12670;53.502;10.252;2023-08-06T09:54:17;20.13;;;9.13;;
16119;SDS011;12670;53.502;10.252;2023-08-06T09:57:28;18.17;;;9.60;;
16119;SDS011;12670;53.502;10.252;2023-08-06T10:00:34;13.83;;;8.73;;
16119;SDS011;12670;53.502;10.252;2023-08-06T10:03:40;14.40;;;8.23;;
16119;SDS011;12670;53.502;10.252;2023-08-06T10:06:46;14.83;;;8.47;;
16119;SDS011;12670;53.502;10.252;2023-08-06T10:09:49;10.53;;;7.10;;
16119;SDS011;12670;53.502;10.252;2023-08-06T10:12:54;11.73;;;6.93;;
16119;SDS011;12670;53.502;10.252;2023-08-06T10:16:00;13.40;;;7.40;;
16119;SDS011;12670;53.502;10.252;2023-08-06T10:19:07;8.20;;;6.17;;
16119;SDS011;12670;53.502;10.252;2023-08-06T10:22:12;12.73;;;6.60;;
16119;SDS011;12670;53.502;10.252;2023-08-06T10:25:16;9.07;;;6.63;;
16119;SDS011;12670;53.502;10.252;2023-08-06T10:28:19;10.50;;;7.37;;
16119;SDS011;12670;53.502;10.252;2023-08-06T10:31:36;10.80;;;7.00;;
16119;SDS011;12670;53.502;10.252;2023-08-06T10:34:56;11.37;;;7.43;;
16119;SDS011;12670;53.502;10.252;2023-08-06T10:38:03;10.10;;;6.90;;
16119;SDS011;12670;53.502;10.252;2023-08-06T10:41:06;12.87;;;7.07;;
16119;SDS011;12670;53.502;10.252;2023-08-06T10:44:09;11.67;;;6.60;;
16119;SDS011;12670;53.502;10.252;2023-08-06T10:47:27;13.17;;;6.93;;
16119;SDS011;12670;53.502;10.252;2023-08-06T10:50:30;9.90;;;6.90;;
16119;SDS011;12670;53.502;10.252;2023-08-06T10:53:33;9.77;;;6.37;;
16119;SDS011;12670;53.502;10.252;2023-08-06T10:56:39;8.00;;;5.83;;
16119;SDS011;12670;53.502;10.252;2023-08-06T10:59:42;13.20;;;6.63;;
16119;SDS011;12670;53.502;10.252;2023-08-06T11:02:48;10.10;;;6.80;;
16119;SDS011;12670;53.502;10.252;2023-08-06T11:05:51;9.20;;;6.33;;
16119;SDS011;12670;53.502;10.252;2023-08-06T11:08:54;9.57;;;6.53;;
16119;SDS011;12670;53.502;10.252;2023-08-06T11:11:57;11.70;;;6.77;;
16119;SDS011;12670;53.502;10.252;2023-08-06T11:15:00;27.30;;;7.60;;
16119;SDS011;12670;53.502;10.252;2023-08-06T11:18:05;11.00;;;6.80;;
16119;SDS011;12670;53.502;10.252;2023-08-06T11:21:08;12.87;;;7.30;;
16119;SDS011;12670;53.502;10.252;2023-08-06T11:24:11;10.70;;;6.93;;
16119;SDS011;12670;53.502;10.252;2023-08-06T11:27:14;8.93;;;6.33;;
16119;SDS011;12670;53.502;10.252;2023-08-06T11:30:17;13.03;;;6.80;;
16119;SDS011;12670;53.502;10.252;2023-08-06T11:33:22;11.23;;;6.70;;
16119;SDS011;12670;53.502;10.252;2023-08-06T11:36:29;8.70;;;6.43;;
16119;SDS011;12670;53.502;10.252;2023-08-06T11:39:34;10.33;;;6.70;;
16119;SDS011;12670;53.502;10.252;2023-08-06T11:42:37;9.60;;;6.80;;
16119;SDS011;12670;53.502;10.252;2023-08-06T11:45:40;11.50;;;7.73;;
16119;SDS011;12670;53.502;10.252;2023-08-06T11:48:53;12.20;;;7.13;;
16119;SDS011;12670;53.502;10.252;2023-08-06T11:51:57;11.03;;;6.87;;
16119;SDS011;12670;53.502;10.252;2023-08-06T11:55:00;14.63;;;8.97;;
16119;SDS011;12670;53.502;10.252;2023-08-06T11:58:08;10.53;;;6.77;;
16119;SDS011;12670;53.502;10.252;2023-08-06T12:01:13;10.37;;;6.13;;
16119;SDS011;12670;53.502;10.252;2023-08-06T12:04:17;8.90;;;5.80;;
16119;SDS011;12670;53.502;10.252;2023-08-06T12:07:20;8.70;;;6.30;;
16119;SDS011;12670;53.502;10.252;2023-08-06T12:10:29;10.63;;;6.57;;
16119;SDS011;12670;53.502;10.252;2023-08-06T12:13:32;12.13;;;6.33;;
16119;SDS011;12670;53.502;10.252;2023-08-06T12:16:35;9.07;;;6.37;;
16119;SDS011;12670;53.502;10.252;2023-08-06T12:19:39;9.77;;;6.77;;
16119;SDS011;12670;53.502;10.252;2023-08-06T12:22:42;12.53;;;7.73;;
16119;SDS011;12670;53.502;10.252;2023-08-06T12:25:46;10.83;;;7.50;;
16119;SDS011;12670;53.502;10.252;2023-08-06T12:28:50;11.33;;;6.80;;
16119;SDS011;12670;53.502;10.252;2023-08-06T12:31:56;12.80;;;7.00;;
16119;SDS011;12670;53.502;10.252;2023-08-06T12:35:00;11.90;;;7.53;;
16119;SDS011;12670;53.502;10.252;2023-08-06T12:38:03;10.50;;;7.07;;
16119;SDS011;12670;53.502;10.252;2023-08-06T12:41:06;11.33;;;8.00;;
16119;SDS011;12670;53.502;10.252;2023-08-06T12:44:08;10.97;;;7.23;;
16119;SDS011;12670;53.502;10.252;2023-08-06T12:47:11;12.60;;;7.00;;
16119;SDS011;12670;53.502;10.252;2023-08-06T12:50:15;12.30;;;7.77;;
16119;SDS011;12670;53.502;10.252;2023-08-06T12:53:19;10.53;;;7.13;;
16119;SDS011;12670;53.502;10.252;2023-08-06T12:56:24;8.03;;;5.63;;
16119;SDS011;12670;53.502;10.252;2023-08-06T12:59:27;8.33;;;5.63;;
16119;SDS011;12670;53.502;10.252;2023-08-06T13:02:29;9.17;;;5.87;;
16119;SDS011;12670;53.502;10.252;2023-08-06T13:05:34;8.27;;;6.33;;
16119;SDS011;12670;53.502;10.252;2023-08-06T13:08:37;11.47;;;6.60;;
16119;SDS011;12670;53.502;10.252;2023-08-06T13:11:40;8.37;;;5.53;;
16119;SDS011;12670;53.502;10.252;2023-08-06T13:14:43;7.73;;;5.40;;
16119;SDS011;12670;53.502;10.252;2023-08-06T13:17:48;9.03;;;6.00;;
16119;SDS011;12670;53.502;10.252;2023-08-06T13:20:53;8.00;;;5.43;;
16119;SDS011;12670;53.502;10.252;2023-08-06T13:23:56;10.43;;;6.30;;
16119;SDS011;12670;53.502;10.252;2023-08-06T13:26:59;10.88;;;5.60;;
16119;SDS011;12670;53.502;10.252;2023-08-06T13:30:02;9.63;;;5.70;;
16119;SDS011;12670;53.502;10.252;2023-08-06T13:33:05;8.15;;;5.07;;
16119;SDS011;12670;53.502;10.252;2023-08-06T13:36:09;10.33;;;5.93;;
16119;SDS011;12670;53.502;10.252;2023-08-06T13:39:11;7.97;;;5.30;;
16119;SDS011;12670;53.502;10.252;2023-08-06T13:42:17;10.25;;;5.82;;
16119;SDS011;12670;53.502;10.252;2023-08-06T13:45:20;10.38;;;5.70;;
16119;SDS011;12670;53.502;10.252;2023-08-06T13:48:22;9.38;;;5.72;;
16119;SDS011;12670;53.502;10.252;2023-08-06T13:51:27;10.90;;;5.88;;
16119;SDS011;12670;53.502;10.252;2023-08-06T13:54:29;10.35;;;5.88;;
16119;SDS011;12670;53.502;10.252;2023-08-06T13:57:32;11.40;;;5.93;;
16119;SDS011;12670;53.502;10.252;2023-08-06T14:00:36;7.95;;;5.60;;
16119;SDS011;12670;53.502;10.252;2023-08-06T14:03:39;15.02;;;6.50;;
16119;SDS011;12670;53.502;10.252;2023-08-06T14:06:43;8.57;;;5.22;;
16119;SDS011;12670;53.502;10.252;2023-08-06T14:09:46;12.18;;;5.75;;
16119;SDS011;12670;53.502;10.252;2023-08-06T14:12:50;9.90;;;5.22;;
16119;SDS011;12670;53.502;10.252;2023-08-06T14:16:10;8.10;;;5.28;;
16119;SDS011;12670;53.502;10.252;2023-08-06T14:19:13;9.13;;;5.07;;
16119;SDS011;12670;53.502;10.252;2023-08-06T14:22:17;7.88;;;5.60;;
16119;SDS011;12670;53.502;10.252;2023-08-06T14:25:19;7.68;;;4.70;;
16119;SDS011;12670;53.502;10.252;2023-08-06T14:28:22;6.72;;;5.05;;
16119;SDS011;12670;53.502;10.252;2023-08-06T14:31:25;9.40;;;5.50;;
16119;SDS011;12670;53.502;10.252;2023-08-06T14:34:28;8.50;;;4.38;;
16119;SDS011;12670;53.502;10.252;2023-08-06T14:37:32;6.20;;;4.13;;
16119;SDS011;12670;53.502;10.252;2023-08-06T14:40:34;8.00;;;3.88;;
16119;SDS011;12670;53.502;10.252;2023-08-06T14:43:39;7.47;;;3.70;;
16119;SDS011;12670;53.502;10.252;2023-08-06T14:46:41;5.47;;;3.90;;
16119;SDS011;12670;53.502;10.252;2023-08-06T14:49:44;7.20;;;3.60;;
16119;SDS011;12670;53.502;10.252;2023-08-06T14:52:48;7.30;;;4.30;;
16119;SDS011;12670;53.502;10.252;2023-08-06T14:55:51;8.17;;;3.40;;
16119;SDS011;12670;53.502;10.252;2023-08-06T14:58:53;9.13;;;3.90;;
16119;SDS011;12670;53.502;10.252;2023-08-06T15:01:56;9.50;;;4.80;;
16119;SDS011;12670;53.502;10.252;2023-08-06T15:04:59;7.93;;;4.87;;
16119;SDS011;12670;53.502;10.252;2023-08-06T15:08:03;7.27;;;4.07;;
16119;SDS011;12670;53.502;10.252;2023-08-06T15:11:06;9.77;;;3.80;;
16119;SDS011;12670;53.502;10.252;2023-08-06T15:14:08;7.10;;;3.77;;
16119;SDS011;12670;53.502;10.252;2023-08-06T15:17:11;9.87;;;6.20;;
16119;SDS011;12670;53.502;10.252;2023-08-06T15:20:14;11.87;;;5.00;;
16119;SDS011;12670;53.502;10.252;2023-08-06T15:23:18;7.37;;;3.73;;
16119;SDS011;12670;53.502;10.252;2023-08-06T15:26:20;5.50;;;2.93;;
16119;SDS011;12670;53.502;10.252;2023-08-06T15:29:23;6.87;;;3.30;;
16119;SDS011;12670;53.502;10.252;2023-08-06T15:32:26;6.03;;;3.13;;
16119;SDS011;12670;53.502;10.252;2023-08-06T15:35:29;10.27;;;3.57;;
16119;SDS011;12670;53.502;10.252;2023-08-06T15:38:33;4.70;;;3.13;;
16119;SDS011;12670;53.502;10.252;2023-08-06T15:41:35;6.10;;;3.60;;
16119;SDS011;12670;53.502;10.252;2023-08-06T15:44:38;6.57;;;3.43;;
16119;SDS011;12670;53.502;10.252;2023-08-06T15:47:41;7.40;;;3.87;;
16119;SDS011;12670;53.502;10.252;2023-08-06T15:50:43;6.40;;;3.60;;
16119;SDS011;12670;53.502;10.252;2023-08-06T15:53:48;7.93;;;3.57;;
16119;SDS011;12670;53.502;10.252;2023-08-06T15:56:50;8.87;;;3.57;;
16119;SDS011;12670;53.502;10.252;2023-08-06T15:59:53;6.07;;;3.00;;
16119;SDS011;12670;53.502;10.252;2023-08-06T16:02:56;9.53;;;3.93;;
16119;SDS011;12670;53.502;10.252;2023-08-06T16:05:59;11.07;;;3.73;;
16119;SDS011;12670;53.502;10.252;2023-08-06T16:09:03;8.27;;;3.40;;
16119;SDS011;12670;53.502;10.252;2023-08-06T16:12:06;7.27;;;3.60;;
16119;SDS011;12670;53.502;10.252;2023-08-06T16:15:11;7.37;;;3.80;;
16119;SDS011;12670;53.502;10.252;2023-08-06T16:18:16;6.80;;;3.70;;
16119;SDS011;12670;53.502;10.252;2023-08-06T16:21:19;10.53;;;4.03;;
16119;SDS011;12670;53.502;10.252;2023-08-06T16:24:23;10.43;;;4.30;;
16119;SDS011;12670;53.502;10.252;2023-08-06T16:27:26;7.57;;;3.63;;
16119;SDS011;12670;53.502;10.252;2023-08-06T16:30:28;7.17;;;3.40;;
16119;SDS011;12670;53.502;10.252;2023-08-06T16:33:32;7.20;;;4.00;;
16119;SDS011;12670;53.502;10.252;2023-08-06T16:36:35;7.33;;;4.20;;
16119;SDS011;12670;53.502;10.252;2023-08-06T16:39:39;8.10;;;4.03;;
16119;SDS011;12670;53.502;10.252;2023-08-06T16:42:42;5.93;;;3.67;;
16119;SDS011;12670;53.502;10.252;2023-08-06T16:45:44;13.27;;;4.00;;
16119;SDS011;12670;53.502;10.252;2023-08-06T16:48:47;17.03;;;4.13;;
16119;SDS011;12670;53.502;10.252;2023-08-06T16:51:50;7.80;;;4.47;;
16119;SDS011;12670;53.502;10.252;2023-08-06T16:54:54;6.33;;;4.20;;
16119;SDS011;12670;53.502;10.252;2023-08-06T16:57:56;11.03;;;4.37;;
16119;SDS011;12670;53.502;10.252;2023-08-06T17:00:59;7.53;;;4.10;;
16119;SDS011;12670;53.502;10.252;2023-08-06T17:04:06;10.60;;;3.83;;
16119;SDS011;12670;53.502;10.252;2023-08-06T17:07:09;10.13;;;4.10;;
16119;SDS011;12670;53.502;10.252;2023-08-06T17:10:13;7.17;;;4.13;;
16119;SDS011;12670;53.502;10.252;2023-08-06T17:13:21;7.67;;;3.93;;
16119;SDS011;12670;53.502;10.252;2023-08-06T17:16:24;6.90;;;4.00;;
16119;SDS011;12670;53.502;10.252;2023-08-06T17:19:27;7.93;;;4.30;;
16119;SDS011;12670;53.502;10.252;2023-08-06T17:22:29;8.90;;;4.60;;
16119;SDS011;12670;53.502;10.252;2023-08-06T17:25:33;6.80;;;4.53;;
16119;SDS011;12670;53.502;10.252;2023-08-06T17:28:36;13.40;;;4.37;;
16119;SDS011;12670;53.502;10.252;2023-08-06T17:31:39;9.97;;;4.20;;
16119;SDS011;12670;53.502;10.252;2023-08-06T17:34:42;6.33;;;4.27;;
16119;SDS011;12670;53.502;10.252;2023-08-06T17:37:44;11.47;;;4.60;;
16119;SDS011;12670;53.502;10.252;2023-08-06T17:40:53;8.47;;;4.27;;
16119;SDS011;12670;53.502;10.252;2023-08-06T17:43:56;10.17;;;4.33;;
16119;SDS011;12670;53.502;10.252;2023-08-06T17:46:59;9.67;;;4.40;;
16119;SDS011;12670;53.502;10.252;2023-08-06T17:50:02;7.57;;;4.47;;
16119;SDS011;12670;53.502;10.252;2023-08-06T17:53:05;6.47;;;4.57;;
16119;SDS011;12670;53.502;10.252;2023-08-06T17:56:09;9.80;;;4.50;;
16119;SDS011;12670;53.502;10.252;2023-08-06T17:59:12;5.63;;;3.83;;
16119;SDS011;12670;53.502;10.252;2023-08-06T18:02:15;6.60;;;4.10;;